Weather History for O'Neill, NE

Change the Weather History Date:

Wednesday, March 13, 2013

  Actual Average Record
Temperature  
Mean Temperature 36 °F -  
Max Temperature 56 °F 46 °F 79 °F (2012)
Min Temperature 16 °F 24 °F -11 °F (1975)
Degree Days  
Heating Degree Days 29    
Moisture  
Dew Point 20 °F    
Average Humidity 64    
Maximum Humidity 94    
Minimum Humidity 25    
Precipitation  
Precipitation 0.00 in - - ()
Sea Level Pressure  
Sea Level Pressure 30.23 in    
Wind  
Wind Speed 6 mph (South)    
Max Wind Speed 18 mph    
Max Gust Speed 24 mph    
Visibility 10 miles    
Events      
Averages and records for this station are not official NWS values.
T = Trace of Precipitation, MM = Missing Value Source: NWS Daily Summary

Daily Weather History Graph

Daily Weather History Graph

Search for Another Location

Airport:

Trip Planner

Search our weather history database for the weather conditions in past years. The results will help you decide how hot, cold, wet, or windy it might be!

Date:

Astronomy

Mar. 13, 2013 Rise Set
Actual Time 7:49 AM CDT 7:39 PM CDT
Civil Twilight 7:21 AM CDT 8:07 PM CDT
Nautical Twilight 6:49 AM CDT 8:39 PM CDT
Astronomical Twilight 6:16 AM CDT 9:13 PM CDT
Moon 8:26 AM CDT (3/13) 10:01 PM CDT (3/13)
Length of Visible Light 12h 45m
Length of Day
11h 49m
Waxing Crescent, 4% of the Moon is Illuminated
Mar 13
Waxing Crescent
Mar 19
First Quarter
Mar 27
Full
Apr 2
Last Quarter
Apr 10
New

Hourly Weather History & Observations

Time (CDT) Temp. Windchill Dew Point Humidity Pressure Visibility Wind Dir Wind Speed Gust Speed Precip Events Conditions
12:15 AM 21.2 °F - 19.4 °F 93% 30.31 in 10.0 mi Calm Calm - N/A   Clear
12:55 AM 21.2 °F 16.4 °F 19.4 °F 93% 30.31 in 10.0 mi North 3.5 mph - N/A   Clear
1:15 AM 21.2 °F - 19.0 °F 91% 30.31 in 10.0 mi Calm Calm - N/A   Clear
1:35 AM 20.3 °F 12.5 °F 18.5 °F 93% 30.31 in 10.0 mi NNE 5.8 mph - N/A   Clear
1:55 AM 20.7 °F - 18.3 °F 91% 30.31 in 10.0 mi Calm Calm - N/A   Clear
2:15 AM 18.9 °F - 16.9 °F 92% 30.32 in 10.0 mi Calm Calm - N/A   Clear
2:35 AM 18.5 °F - 17.1 °F 94% 30.32 in 10.0 mi Calm Calm - N/A   Clear
2:55 AM 18.1 °F 12.9 °F 16.2 °F 92% 30.32 in 10.0 mi SW 3.5 mph - N/A   Clear
3:15 AM 18.0 °F - 16.3 °F 93% 30.32 in 10.0 mi Calm Calm - N/A   Clear
3:35 AM 17.6 °F - 15.8 °F 93% 30.32 in 10.0 mi Calm Calm - N/A   Clear
3:55 AM 16.7 °F 11.2 °F 14.7 °F 92% 30.32 in 10.0 mi WSW 3.5 mph - N/A   Clear
4:15 AM 17.4 °F - 15.6 °F 93% 30.32 in 10.0 mi Calm Calm - N/A   Clear
4:35 AM 17.6 °F - 15.6 °F 92% 30.32 in 10.0 mi Calm Calm - N/A   Clear
4:55 AM 17.6 °F - 15.8 °F 93% 30.31 in 10.0 mi Calm Calm - N/A   Clear
5:15 AM 16.7 °F - 14.2 °F 90% 30.31 in 10.0 mi Calm Calm - N/A   Clear
5:35 AM 17.8 °F - 15.6 °F 91% 30.31 in 10.0 mi Calm Calm - N/A   Clear
5:55 AM 18.3 °F - 16.2 °F 91% 30.31 in 10.0 mi Calm Calm - N/A   Scattered Clouds
6:15 AM 18.3 °F - 15.8 °F 90% 30.31 in 10.0 mi Calm Calm - N/A   Scattered Clouds
6:35 AM 18.5 °F 13.3 °F 16.3 °F 91% 30.30 in 10.0 mi SE 3.5 mph - N/A   Scattered Clouds
6:55 AM 19.2 °F - 16.7 °F 90% 30.31 in 10.0 mi Calm Calm - N/A   Scattered Clouds
7:15 AM 19.4 °F 14.3 °F 17.4 °F 92% 30.30 in 10.0 mi East 3.5 mph - N/A   Mostly Cloudy
7:35 AM 21.0 °F 16.2 °F 18.9 °F 91% 30.30 in 10.0 mi ESE 3.5 mph - N/A   Overcast
7:55 AM 21.6 °F 15.3 °F 18.9 °F 89% 30.30 in 10.0 mi SSE 4.6 mph - N/A   Overcast
8:15 AM 21.2 °F 14.9 °F 18.7 °F 90% 30.31 in 10.0 mi SSE 4.6 mph - N/A   Overcast
8:35 AM 21.9 °F 13.4 °F 19.6 °F 91% 30.31 in 10.0 mi South 6.9 mph - N/A   Overcast
8:55 AM 22.8 °F 14.5 °F 19.9 °F 89% 30.31 in 10.0 mi South 6.9 mph - N/A   Overcast
9:15 AM 23.9 °F 15.8 °F 20.8 °F 88% 30.31 in 10.0 mi SSE 6.9 mph - N/A   Overcast
9:35 AM 25.0 °F 16.3 °F 21.6 °F 87% 30.32 in 10.0 mi SSE 8.1 mph - N/A   Overcast
9:55 AM 26.2 °F 17.8 °F 22.3 °F 85% 30.31 in 10.0 mi SSE 8.1 mph - N/A   Overcast
10:15 AM 28.2 °F 19.5 °F 23.7 °F 83% 30.31 in 10.0 mi SSE 9.2 mph - N/A   Overcast
10:35 AM 31.1 °F 23.1 °F 25.5 °F 80% 30.30 in 10.0 mi South 9.2 mph - N/A   Mostly Cloudy
10:55 AM 32.5 °F 24.2 °F 22.1 °F 65% 30.30 in 10.0 mi South 10.4 mph - N/A   Scattered Clouds
11:15 AM 34.9 °F 25.3 °F 21.0 °F 57% 30.29 in 10.0 mi South 15.0 mph - N/A   Mostly Cloudy
11:35 AM 36.7 °F 28.0 °F 19.6 °F 50% 30.28 in 10.0 mi South 13.8 mph - N/A   Overcast
12:15 PM 40.8 °F 33.7 °F 17.6 °F 39% 30.27 in 10.0 mi South 12.7 mph - N/A   Mostly Cloudy
12:35 PM 42.6 °F 35.6 °F 15.6 °F 34% 30.26 in 10.0 mi South 13.8 mph 19.6 mph N/A   Scattered Clouds
12:55 PM 43.7 °F 36.3 °F 13.6 °F 30% 30.25 in 10.0 mi South 16.1 mph - N/A   Clear
1:15 PM 44.8 °F 37.4 °F 13.3 °F 28% 30.25 in 10.0 mi South 17.3 mph 24.2 mph N/A   Clear
1:35 PM 45.3 °F 38.1 °F 15.1 °F 30% 30.24 in 10.0 mi South 17.3 mph 24.2 mph N/A   Clear
1:55 PM 46.8 °F - 15.6 °F 29% 30.23 in 10.0 mi South 13.8 mph 23.0 mph N/A   Clear
2:15 PM 48.4 °F - 17.1 °F 29% 30.22 in 10.0 mi South 17.3 mph 23.0 mph N/A   Clear
2:35 PM 49.5 °F - 17.2 °F 28% 30.21 in 10.0 mi SSW 18.4 mph 24.2 mph N/A   Clear
2:55 PM 50.4 °F - 19.0 °F 29% 30.21 in 10.0 mi South 17.3 mph 21.9 mph N/A   Clear
3:15 PM 51.4 °F - 19.6 °F 29% 30.19 in 10.0 mi South 11.5 mph 23.0 mph N/A   Clear
3:35 PM 52.3 °F - 19.8 °F 28% 30.18 in 10.0 mi South 12.7 mph 21.9 mph N/A   Clear
3:55 PM 53.6 °F - 19.9 °F 27% 30.17 in 10.0 mi SSW 15.0 mph 21.9 mph N/A   Clear
4:15 PM 54.3 °F - 20.3 °F 26% 30.17 in 10.0 mi SSW 11.5 mph 18.4 mph N/A   Clear
4:35 PM 54.9 °F - 20.3 °F 26% 30.16 in 10.0 mi South 15.0 mph 21.9 mph N/A   Clear
4:55 PM 55.0 °F - 19.9 °F 25% 30.15 in 10.0 mi South 12.7 mph 17.3 mph N/A   Clear
5:15 PM 55.9 °F - 20.8 °F 26% 30.14 in 10.0 mi SSW 15.0 mph 18.4 mph N/A   Clear
5:35 PM 56.3 °F - 21.0 °F 25% 30.14 in 10.0 mi South 13.8 mph 18.4 mph N/A   Clear
5:55 PM 56.3 °F - 21.7 °F 26% 30.13 in 10.0 mi South 12.7 mph 16.1 mph N/A   Clear
6:15 PM 56.3 °F - 22.5 °F 27% 30.14 in 10.0 mi SSW 13.8 mph - N/A   Clear
6:35 PM 55.4 °F - 23.5 °F 29% 30.13 in 10.0 mi South 10.4 mph - N/A   Clear
6:55 PM 52.7 °F - 23.4 °F 32% 30.12 in 10.0 mi South 10.4 mph - N/A   Clear
7:15 PM 50.4 °F - 23.9 °F 36% 30.11 in 10.0 mi South 9.2 mph - N/A   Clear
7:35 PM 47.7 °F - 23.9 °F 39% 30.10 in 10.0 mi South 9.2 mph - N/A   Clear
7:55 PM 45.9 °F 40.4 °F 24.1 °F 42% 30.10 in 10.0 mi SSE 11.5 mph - N/A   Clear
8:15 PM 45.0 °F 38.5 °F 25.3 °F 46% 30.11 in 10.0 mi SSE 13.8 mph - N/A   Clear
8:35 PM 41.7 °F 34.8 °F 27.1 °F 56% 30.11 in 10.0 mi SSE 12.7 mph - N/A   Clear
8:55 PM 41.0 °F 33.5 °F 27.3 °F 58% 30.11 in 10.0 mi South 13.8 mph - N/A   Clear
9:15 PM 39.4 °F 32.7 °F 27.5 °F 62% 30.10 in 10.0 mi SSE 10.4 mph - N/A   Clear
9:35 PM 38.5 °F 31.6 °F 27.5 °F 65% 30.10 in 10.0 mi SSE 10.4 mph - N/A   Clear
9:55 PM 37.4 °F 30.8 °F 27.5 °F 67% 30.12 in 10.0 mi SSE 9.2 mph - N/A   Clear
10:15 PM 37.0 °F 29.3 °F 27.5 °F 68% 30.12 in 10.0 mi SSE 11.5 mph - N/A   Clear
10:35 PM 36.3 °F 28.4 °F 27.7 °F 71% 30.12 in 10.0 mi SSE 11.5 mph - N/A   Clear
10:55 PM 36.0 °F 28.5 °F 28.0 °F 73% 30.12 in 10.0 mi SSE 10.4 mph - N/A   Scattered Clouds
11:15 PM 36.1 °F 28.7 °F 28.0 °F 72% 30.11 in 10.0 mi SSE 10.4 mph - N/A   Overcast
11:35 PM 36.5 °F 28.7 °F 28.2 °F 72% 30.10 in 10.0 mi SSE 11.5 mph - N/A   Overcast
11:55 PM 36.9 °F 29.6 °F 28.4 °F 71% 30.11 in 10.0 mi SSE 10.4 mph - N/A   Overcast